createdAt,value
2017-12-27T11:56:11.446Z,40
2017-12-27T11:56:36.999Z,40
2017-12-27T11:57:02.573Z,40
2017-12-27T11:57:28.144Z,40
2017-12-27T11:57:53.712Z,44
2017-12-27T11:58:19.301Z,44
2017-12-27T11:58:44.975Z,40
2017-12-27T11:59:10.545Z,40
2017-12-27T11:59:36.130Z,40
2017-12-27T12:00:01.707Z,40
2017-12-27T12:00:27.296Z,36
2017-12-27T12:00:52.873Z,36
2017-12-27T12:01:18.505Z,36
2017-12-27T12:01:44.156Z,36
2017-12-27T12:02:09.747Z,40
2017-12-27T12:02:35.316Z,40
2017-12-27T12:03:00.921Z,44
2017-12-27T12:03:26.485Z,44
2017-12-27T12:03:52.077Z,44
2017-12-27T12:04:17.668Z,48
2017-12-27T12:04:43.272Z,48
2017-12-27T12:05:08.865Z,52
2017-12-27T12:05:34.409Z,56
2017-12-27T12:06:00.039Z,52
2017-12-27T12:06:25.610Z,56
2017-12-27T12:06:51.191Z,56
2017-12-27T12:07:16.784Z,60
2017-12-27T12:07:42.332Z,60
2017-12-27T12:08:07.875Z,64
2017-12-27T12:08:33.450Z,64
2017-12-27T12:08:59.092Z,64
2017-12-27T12:09:24.602Z,64
2017-12-27T12:09:50.186Z,64
2017-12-27T12:10:15.778Z,64
2017-12-27T12:10:41.357Z,64
2017-12-27T12:11:06.898Z,64
2017-12-27T12:11:32.493Z,64
2017-12-27T12:11:58.083Z,64
2017-12-27T12:12:23.663Z,64
2017-12-27T12:12:49.233Z,68
2017-12-27T12:13:14.804Z,64
2017-12-27T12:13:40.433Z,64
2017-12-27T12:14:06.019Z,64
2017-12-27T12:14:31.595Z,64
2017-12-27T12:14:57.144Z,60
2017-12-27T12:15:22.789Z,56
2017-12-27T12:15:48.353Z,56
2017-12-27T12:16:13.926Z,52
2017-12-27T12:16:39.499Z,52
2017-12-27T12:17:05.101Z,52
2017-12-27T12:17:30.705Z,52
2017-12-27T12:17:56.449Z,52
2017-12-27T12:18:22.162Z,48
2017-12-27T12:18:47.735Z,48
2017-12-27T12:19:13.324Z,48
2017-12-27T12:19:38.890Z,48
2017-12-27T12:20:04.520Z,48
2017-12-27T12:20:30.121Z,48
2017-12-27T12:20:55.700Z,48
2017-12-27T12:21:21.286Z,48
2017-12-27T12:21:46.881Z,48
2017-12-27T12:22:12.447Z,48
2017-12-27T12:22:38.166Z,48
2017-12-27T12:23:03.727Z,48
2017-12-27T12:23:29.282Z,52
2017-12-27T12:23:54.868Z,48
2017-12-27T12:24:20.592Z,52
2017-12-27T12:24:46.152Z,52
2017-12-27T12:25:11.699Z,52
2017-12-27T12:25:37.328Z,52
2017-12-27T12:26:02.922Z,52
2017-12-27T12:26:28.484Z,56
2017-12-27T12:26:54.084Z,52
2017-12-27T12:27:19.725Z,52
2017-12-27T12:27:45.293Z,52
2017-12-27T12:28:10.848Z,52
2017-12-27T12:28:36.484Z,52
2017-12-27T12:29:02.085Z,52
2017-12-27T12:29:27.631Z,52
2017-12-27T12:29:53.243Z,52
2017-12-27T12:30:18.806Z,52
2017-12-27T12:30:44.395Z,52
2017-12-27T12:31:09.947Z,52
2017-12-27T12:31:35.520Z,52
2017-12-27T12:32:01.097Z,52
2017-12-27T12:32:26.668Z,52
2017-12-27T12:32:52.271Z,52
2017-12-27T12:33:17.831Z,48
2017-12-27T12:33:43.408Z,52
2017-12-27T12:34:09.016Z,48
2017-12-27T12:34:34.573Z,48
2017-12-27T12:35:00.141Z,44
2017-12-27T12:35:25.715Z,44
2017-12-27T12:35:51.282Z,48
2017-12-27T12:36:16.870Z,44
2017-12-27T12:36:42.472Z,48
2017-12-27T12:37:08.085Z,44
2017-12-27T12:37:33.659Z,40
2017-12-27T12:37:59.269Z,40
2017-12-27T12:38:24.865Z,40
2017-12-27T12:38:50.424Z,40
2017-12-27T12:39:16.013Z,44
2017-12-27T12:39:41.558Z,40
2017-12-27T12:40:07.137Z,40
2017-12-27T12:40:32.864Z,40
2017-12-27T12:40:58.559Z,44
2017-12-27T12:41:24.132Z,44
2017-12-27T12:41:49.683Z,44
2017-12-27T12:42:15.261Z,44
2017-12-27T12:42:40.838Z,44
2017-12-27T12:43:06.386Z,44
2017-12-27T12:43:32.042Z,40
2017-12-27T12:43:57.632Z,44
2017-12-27T12:44:23.199Z,44
2017-12-27T12:44:48.766Z,44
2017-12-27T12:45:14.389Z,40
2017-12-27T12:45:39.946Z,40
2017-12-27T12:46:05.513Z,40
2017-12-27T12:46:31.167Z,44
2017-12-27T12:46:56.733Z,44
2017-12-27T12:47:22.295Z,40
2017-12-27T12:47:47.833Z,40
2017-12-27T12:48:13.396Z,36
2017-12-27T12:48:38.937Z,40
2017-12-27T12:49:04.548Z,36
2017-12-27T12:49:30.125Z,36
2017-12-27T12:49:55.721Z,36
2017-12-27T12:50:21.277Z,36
2017-12-27T12:50:46.862Z,36
2017-12-27T12:51:12.432Z,32
2017-12-27T12:51:38.054Z,36
2017-12-27T12:52:03.628Z,32
2017-12-27T12:52:29.195Z,32
2017-12-27T12:52:54.758Z,32
2017-12-27T12:53:20.336Z,32
2017-12-27T12:53:45.921Z,36
2017-12-27T12:54:11.508Z,36
2017-12-27T12:54:37.997Z,36
2017-12-27T12:55:02.661Z,36
2017-12-27T12:55:28.270Z,36
2017-12-27T12:55:53.858Z,36
2017-12-27T12:56:19.404Z,36
2017-12-27T12:56:44.969Z,36
2017-12-27T12:57:10.538Z,36
2017-12-27T12:57:36.111Z,36
2017-12-27T12:58:01.688Z,36
2017-12-27T12:58:27.251Z,36
2017-12-27T12:58:52.809Z,32
2017-12-27T12:59:18.393Z,36
2017-12-27T12:59:43.980Z,32
2017-12-27T13:00:09.537Z,36
2017-12-27T13:00:35.111Z,36
2017-12-27T13:01:00.779Z,36
2017-12-27T13:01:26.365Z,36
2017-12-27T13:01:51.911Z,36
2017-12-27T13:02:17.530Z,36
2017-12-27T13:02:43.107Z,36
2017-12-27T13:03:08.709Z,36
2017-12-27T13:03:34.282Z,36
2017-12-27T13:03:59.882Z,36
2017-12-27T13:04:25.410Z,36
2017-12-27T13:04:50.988Z,36
2017-12-27T13:05:16.565Z,36
2017-12-27T13:05:42.146Z,36
2017-12-27T13:06:07.728Z,36
2017-12-27T13:06:33.307Z,36
2017-12-27T13:06:58.868Z,40
2017-12-27T13:07:24.452Z,36
2017-12-27T13:07:50.017Z,36
2017-12-27T13:08:15.585Z,40
2017-12-27T13:08:41.138Z,36
2017-12-27T13:09:06.704Z,36
2017-12-27T13:09:32.275Z,36
2017-12-27T13:09:57.912Z,36
2017-12-27T13:10:23.540Z,36
2017-12-27T13:10:49.092Z,36
2017-12-27T13:11:14.707Z,36
2017-12-27T13:11:40.272Z,36
2017-12-27T13:12:05.860Z,36
2017-12-27T13:12:31.417Z,36
2017-12-27T13:12:57.010Z,36
2017-12-27T13:13:22.579Z,36
2017-12-27T13:13:48.175Z,36
2017-12-27T13:14:13.721Z,36
2017-12-27T13:14:39.278Z,36
2017-12-27T13:15:04.873Z,36
2017-12-27T13:15:30.451Z,36
2017-12-27T13:15:56.005Z,36
2017-12-27T13:16:21.588Z,36
2017-12-27T13:16:47.155Z,36
2017-12-27T13:17:12.707Z,36
2017-12-27T13:17:38.313Z,36
2017-12-27T13:18:03.877Z,36
2017-12-27T13:18:29.421Z,32
2017-12-27T13:18:55.049Z,36
2017-12-27T13:19:20.644Z,36
2017-12-27T13:19:46.210Z,36
2017-12-27T13:20:11.782Z,32
2017-12-27T13:20:37.340Z,32
2017-12-27T13:21:02.928Z,36
2017-12-27T13:21:28.470Z,32
2017-12-27T13:21:54.048Z,32
2017-12-27T13:22:19.625Z,32
2017-12-27T13:22:45.213Z,32
2017-12-27T13:23:10.786Z,32
2017-12-27T13:23:36.353Z,28
2017-12-27T13:24:01.920Z,28
2017-12-27T13:24:27.523Z,28
2017-12-27T13:24:53.081Z,32
2017-12-27T13:25:18.669Z,32
2017-12-27T13:25:44.266Z,28
2017-12-27T13:26:09.912Z,28
2017-12-27T13:26:35.481Z,28
2017-12-27T13:27:01.040Z,28
2017-12-27T13:27:26.633Z,24
2017-12-27T13:27:52.216Z,28
2017-12-27T13:28:17.889Z,24
2017-12-27T13:28:43.591Z,24
2017-12-27T13:29:09.146Z,24
2017-12-27T13:29:34.686Z,24
2017-12-27T13:30:00.270Z,28
2017-12-27T13:30:25.965Z,28
2017-12-27T13:30:51.511Z,24
2017-12-27T13:31:17.079Z,24
2017-12-27T13:31:42.644Z,24
2017-12-27T13:32:08.240Z,24
2017-12-27T13:32:33.796Z,20
2017-12-27T13:32:59.399Z,24
2017-12-27T13:33:24.960Z,24
2017-12-27T13:33:50.521Z,20
2017-12-27T13:34:16.105Z,24
2017-12-27T13:34:41.722Z,20
2017-12-27T13:35:07.301Z,20
2017-12-27T13:35:32.908Z,20
2017-12-27T13:35:58.468Z,20
2017-12-27T13:36:24.041Z,20
2017-12-27T13:36:49.638Z,20
2017-12-27T13:37:15.289Z,16
2017-12-27T13:37:40.854Z,16
2017-12-27T13:38:06.407Z,20
2017-12-27T13:38:32.034Z,20
2017-12-27T13:38:57.630Z,20
2017-12-27T13:39:23.204Z,20
2017-12-27T13:39:48.881Z,16
2017-12-27T13:40:14.466Z,16
2017-12-27T13:40:40.016Z,16
2017-12-27T13:41:05.685Z,16
2017-12-27T13:41:31.280Z,20
2017-12-27T13:41:56.854Z,20
2017-12-27T13:42:22.421Z,16
2017-12-27T13:42:47.979Z,16
2017-12-27T13:43:13.553Z,16
2017-12-27T13:43:39.102Z,16
2017-12-27T13:44:04.686Z,16
2017-12-27T13:44:30.260Z,16
2017-12-27T13:44:55.888Z,16
2017-12-27T13:45:21.448Z,16
2017-12-27T13:45:47.011Z,16
2017-12-27T13:46:12.644Z,16
2017-12-27T13:46:38.287Z,16
2017-12-27T13:47:03.943Z,16
2017-12-27T13:47:29.602Z,16
2017-12-27T13:47:55.138Z,16
2017-12-27T13:48:20.694Z,12
2017-12-27T13:48:46.277Z,12
2017-12-27T13:49:11.827Z,16
2017-12-27T13:49:37.400Z,16
2017-12-27T13:50:02.951Z,16
2017-12-27T13:50:28.571Z,16
2017-12-27T13:50:54.125Z,16
2017-12-27T13:51:19.725Z,12
2017-12-27T13:51:45.273Z,12
2017-12-27T13:52:10.869Z,12
2017-12-27T13:52:36.434Z,16
2017-12-27T13:53:01.999Z,16
2017-12-27T13:53:27.566Z,16
2017-12-27T13:53:53.128Z,16
2017-12-27T13:54:18.724Z,16
2017-12-27T13:54:44.329Z,16
2017-12-27T13:55:09.899Z,12
2017-12-27T13:55:35.458Z,12
2017-12-27T13:56:01.029Z,12
2017-12-27T13:56:26.685Z,12
2017-12-27T13:56:52.244Z,12
2017-12-27T13:57:17.796Z,12
2017-12-27T13:57:43.396Z,12
2017-12-27T13:58:08.958Z,12
2017-12-27T13:58:34.548Z,12
2017-12-27T13:59:00.146Z,12
2017-12-27T13:59:25.729Z,12
2017-12-27T13:59:51.276Z,12
2017-12-27T14:00:16.830Z,16
2017-12-27T14:00:42.410Z,16
2017-12-27T14:01:07.950Z,16
2017-12-27T14:01:33.598Z,12
2017-12-27T14:01:59.178Z,12
2017-12-27T14:02:24.764Z,12
2017-12-27T14:02:50.345Z,12
2017-12-27T14:03:15.921Z,12
2017-12-27T14:03:41.487Z,12
2017-12-27T14:04:07.066Z,12
2017-12-27T14:04:32.642Z,12
2017-12-27T14:04:58.210Z,12
2017-12-27T14:05:23.823Z,8
2017-12-27T14:05:49.345Z,12
2017-12-27T14:06:14.918Z,12
2017-12-27T14:06:40.517Z,8
2017-12-27T14:07:06.148Z,8
2017-12-27T14:07:31.722Z,8
2017-12-27T14:07:57.300Z,12
2017-12-27T14:08:22.877Z,8
2017-12-27T14:08:48.474Z,8
2017-12-27T14:09:14.037Z,8
2017-12-27T14:09:39.633Z,8
2017-12-27T14:10:05.208Z,8
2017-12-27T14:10:30.772Z,8
2017-12-27T14:10:56.379Z,8
2017-12-27T14:11:21.929Z,8
2017-12-27T14:11:47.480Z,4
2017-12-27T14:12:13.068Z,4
2017-12-27T14:12:38.634Z,8
2017-12-27T14:13:04.180Z,8
2017-12-27T14:13:29.789Z,8
2017-12-27T14:13:55.379Z,8
2017-12-27T14:14:20.952Z,8
2017-12-27T14:14:46.540Z,4
2017-12-27T14:15:12.136Z,8
2017-12-27T14:15:37.696Z,8
2017-12-27T14:16:03.256Z,8
2017-12-27T14:16:28.820Z,8
2017-12-27T14:16:54.399Z,8
2017-12-27T14:17:19.958Z,4
2017-12-27T14:17:45.553Z,4
2017-12-27T14:18:11.114Z,4
2017-12-27T14:18:36.752Z,8
2017-12-27T14:19:02.339Z,8
2017-12-27T14:19:27.899Z,8
2017-12-27T14:19:53.600Z,4
2017-12-27T14:20:19.159Z,4
2017-12-27T14:20:44.699Z,4
2017-12-27T14:21:10.321Z,4
2017-12-27T14:21:35.852Z,4
2017-12-27T14:22:01.419Z,4
2017-12-27T14:22:26.950Z,4
2017-12-27T14:22:52.519Z,4
2017-12-27T14:23:18.075Z,4
2017-12-27T14:23:43.653Z,4
2017-12-27T14:24:09.297Z,4
2017-12-27T14:24:34.886Z,4
2017-12-27T14:25:00.446Z,4
2017-12-27T14:25:26.020Z,4
2017-12-27T14:25:51.566Z,8
2017-12-27T14:26:17.141Z,8
2017-12-27T14:26:42.720Z,4
2017-12-27T14:27:08.268Z,4
2017-12-27T14:27:33.813Z,4
2017-12-27T14:27:59.392Z,4
2017-12-27T14:28:24.941Z,4
2017-12-27T14:28:50.554Z,4
2017-12-27T14:29:16.120Z,4
2017-12-27T14:29:41.700Z,4
2017-12-27T14:30:07.277Z,4
2017-12-27T14:30:32.947Z,4
2017-12-27T14:30:58.524Z,4
2017-12-27T14:31:24.090Z,4
2017-12-27T14:31:49.685Z,4
2017-12-27T14:32:15.266Z,4
2017-12-27T14:32:40.829Z,4
2017-12-27T14:33:06.403Z,0
2017-12-27T14:33:31.985Z,0
2017-12-27T14:33:57.619Z,4
2017-12-27T14:34:23.210Z,4
2017-12-27T14:34:48.794Z,4
2017-12-27T14:35:14.386Z,4
2017-12-27T14:35:39.934Z,4
2017-12-27T14:36:05.495Z,4
2017-12-27T14:36:31.066Z,4
2017-12-27T14:36:56.684Z,4
2017-12-27T14:37:22.403Z,4
2017-12-27T14:37:47.940Z,4
2017-12-27T14:38:13.501Z,4
2017-12-27T14:38:39.137Z,4
2017-12-27T14:39:04.711Z,4
2017-12-27T14:39:30.319Z,0
2017-12-27T14:39:55.929Z,0
2017-12-27T14:40:21.659Z,0
2017-12-27T14:40:47.219Z,0
2017-12-27T14:41:12.773Z,0
2017-12-27T14:41:38.356Z,0
2017-12-27T14:42:03.939Z,0
2017-12-27T14:42:29.524Z,0
2017-12-27T14:42:55.075Z,0
2017-12-27T14:43:20.671Z,0
2017-12-27T14:43:46.211Z,0
2017-12-27T14:44:11.792Z,0
2017-12-27T14:44:37.356Z,0
2017-12-27T14:45:02.909Z,0
2017-12-27T14:45:28.539Z,0
2017-12-27T14:45:54.141Z,0
2017-12-27T14:46:19.706Z,0
2017-12-27T14:46:45.260Z,0
2017-12-27T14:47:10.826Z,0
2017-12-27T14:47:36.379Z,0
2017-12-27T14:48:01.958Z,0
2017-12-27T14:48:27.538Z,0
2017-12-27T14:48:53.101Z,0
2017-12-27T14:49:18.695Z,0
2017-12-27T14:49:44.340Z,4
2017-12-27T14:50:09.897Z,4
2017-12-27T14:50:35.500Z,4
2017-12-27T14:51:01.053Z,4
2017-12-27T14:51:26.605Z,4
2017-12-27T14:51:52.216Z,4
2017-12-27T14:52:17.783Z,4
2017-12-27T14:52:43.355Z,4
2017-12-27T14:53:08.924Z,0
2017-12-27T14:53:34.502Z,0
2017-12-27T14:54:00.069Z,0
2017-12-27T14:54:25.642Z,0
2017-12-27T14:54:51.205Z,0
2017-12-27T14:55:16.759Z,0
2017-12-27T14:55:42.320Z,0
2017-12-27T14:56:07.881Z,0
2017-12-27T14:56:33.447Z,0
2017-12-27T14:56:59.036Z,0
2017-12-27T14:57:24.719Z,0
2017-12-27T14:57:50.293Z,0
2017-12-27T14:58:15.878Z,0
2017-12-27T14:58:41.430Z,0
2017-12-27T14:59:06.996Z,0
2017-12-27T14:59:32.554Z,0
2017-12-27T14:59:58.164Z,0
2017-12-27T15:00:23.721Z,0
2017-12-27T15:00:49.283Z,0
2017-12-27T15:01:14.873Z,0
2017-12-27T15:01:40.502Z,0
2017-12-27T15:02:06.066Z,0
2017-12-27T15:02:31.673Z,0
2017-12-27T15:02:57.264Z,0
2017-12-27T15:03:22.815Z,0
2017-12-27T15:03:48.392Z,0
2017-12-27T15:04:13.974Z,0
2017-12-27T15:04:39.538Z,0
2017-12-27T15:05:05.109Z,0
2017-12-27T15:05:30.708Z,0
2017-12-27T15:05:56.267Z,0
2017-12-27T15:06:21.818Z,0
2017-12-27T15:06:47.420Z,0
2017-12-27T15:07:12.979Z,0
2017-12-27T15:07:38.567Z,0
2017-12-27T15:08:04.116Z,0
2017-12-27T15:08:29.704Z,0
2017-12-27T15:08:55.283Z,0
2017-12-27T15:09:20.934Z,4
2017-12-27T15:09:46.501Z,4
2017-12-27T15:10:12.072Z,4
2017-12-27T15:10:37.638Z,4
2017-12-27T15:11:03.261Z,4
2017-12-27T15:11:28.833Z,4
2017-12-27T15:11:54.466Z,0
2017-12-27T15:12:20.005Z,0
2017-12-27T15:12:45.585Z,0
2017-12-27T15:13:11.160Z,0
2017-12-27T15:13:36.719Z,0
2017-12-27T15:14:02.269Z,0
2017-12-27T15:14:27.830Z,0
2017-12-27T15:14:53.475Z,0
2017-12-27T15:15:19.025Z,0
2017-12-27T15:15:44.579Z,0
2017-12-27T15:16:10.167Z,0
2017-12-27T15:16:35.757Z,0
2017-12-27T15:17:01.337Z,0
2017-12-27T15:17:26.892Z,0
2017-12-27T15:17:52.458Z,0
2017-12-27T15:18:18.029Z,0
2017-12-27T15:18:43.602Z,0
2017-12-27T15:19:09.172Z,0
2017-12-27T15:19:34.746Z,0
2017-12-27T15:20:00.326Z,0
2017-12-27T15:20:25.892Z,0
2017-12-27T15:20:51.458Z,0
2017-12-27T15:21:17.081Z,0
2017-12-27T15:21:42.651Z,0
2017-12-27T15:22:08.283Z,0
2017-12-27T15:22:33.895Z,0
2017-12-27T15:22:59.457Z,0
2017-12-27T15:23:25.012Z,0
2017-12-27T15:23:50.566Z,0
2017-12-27T15:24:16.149Z,0
2017-12-27T15:24:41.695Z,0
2017-12-27T15:25:07.272Z,0
2017-12-27T15:25:32.844Z,0
2017-12-27T15:25:58.408Z,0
2017-12-27T15:26:23.991Z,0
2017-12-27T15:26:49.549Z,0
2017-12-27T15:27:15.118Z,0
2017-12-27T15:27:40.692Z,0
2017-12-27T15:28:06.320Z,0
2017-12-27T15:28:31.901Z,0
2017-12-27T15:28:57.480Z,0
2017-12-27T15:29:23.090Z,0
2017-12-27T15:29:48.662Z,0
2017-12-27T15:30:14.241Z,0
2017-12-27T15:30:39.838Z,0
2017-12-27T15:31:05.414Z,0
2017-12-27T15:31:30.973Z,0
2017-12-27T15:31:56.625Z,0
2017-12-27T15:32:22.138Z,0
2017-12-27T15:32:47.740Z,0
2017-12-27T15:33:13.301Z,0
2017-12-27T15:33:38.870Z,0
2017-12-27T15:34:04.452Z,0
2017-12-27T15:34:30.033Z,0
2017-12-27T15:34:55.591Z,0
2017-12-27T15:35:21.177Z,0
2017-12-27T15:35:46.735Z,0
2017-12-27T15:36:12.299Z,0
2017-12-27T15:36:37.870Z,0
2017-12-27T15:37:03.480Z,0
2017-12-27T15:37:29.040Z,0
2017-12-27T15:37:54.603Z,0
2017-12-27T15:38:20.248Z,0
2017-12-27T15:38:45.802Z,0
2017-12-27T15:39:11.356Z,0
2017-12-27T15:39:36.989Z,0
2017-12-27T15:40:02.576Z,0
2017-12-27T15:40:28.155Z,0
2017-12-27T15:40:53.724Z,0
2017-12-27T15:41:19.296Z,0
2017-12-27T15:41:44.887Z,0
2017-12-27T15:42:10.537Z,0
2017-12-27T15:42:36.126Z,0
2017-12-27T15:43:01.689Z,0
2017-12-27T15:43:27.276Z,0
2017-12-27T15:43:52.843Z,0
2017-12-27T15:44:18.439Z,0
2017-12-27T15:44:44.052Z,0
2017-12-27T15:45:09.638Z,0
2017-12-27T15:45:35.204Z,0
2017-12-27T15:46:00.779Z,0
2017-12-27T15:46:26.341Z,0
2017-12-27T15:46:51.936Z,0
2017-12-27T15:47:17.509Z,0
2017-12-27T15:47:43.075Z,0
2017-12-27T15:48:08.639Z,0
2017-12-27T15:48:34.212Z,0
2017-12-27T15:48:59.932Z,0
2017-12-27T15:49:25.509Z,0
2017-12-27T15:49:51.088Z,0
2017-12-27T15:50:16.668Z,0
2017-12-27T15:50:42.233Z,0
2017-12-27T15:51:07.794Z,0
2017-12-27T15:51:33.382Z,0
2017-12-27T15:51:58.944Z,0
2017-12-27T15:52:24.531Z,0
2017-12-27T15:52:50.097Z,0
2017-12-27T15:53:15.751Z,0
2017-12-27T15:53:41.316Z,0
2017-12-27T15:54:06.884Z,0
2017-12-27T15:54:32.530Z,0
2017-12-27T15:54:58.142Z,0
2017-12-27T15:55:23.687Z,0
2017-12-27T15:55:49.262Z,0
2017-12-27T15:56:14.855Z,0
2017-12-27T15:56:40.409Z,0
2017-12-27T15:57:05.982Z,0
2017-12-27T15:57:31.564Z,0
2017-12-27T15:57:57.120Z,0
2017-12-27T15:58:22.714Z,0
2017-12-27T15:58:48.274Z,0
2017-12-27T15:59:13.828Z,0
2017-12-27T15:59:39.396Z,0
2017-12-27T16:00:04.952Z,0
2017-12-27T16:00:30.540Z,0
2017-12-27T16:00:56.077Z,0
2017-12-27T16:01:21.729Z,0
2017-12-27T16:01:47.329Z,0
2017-12-27T16:02:12.902Z,0
2017-12-27T16:02:38.570Z,0
2017-12-27T16:03:04.118Z,0
2017-12-27T16:03:29.687Z,0
2017-12-27T16:03:55.253Z,0
2017-12-27T16:04:20.808Z,0
2017-12-27T16:04:46.367Z,0
2017-12-27T16:05:11.993Z,0
2017-12-27T16:05:37.557Z,0
2017-12-27T16:06:03.120Z,0
2017-12-27T16:06:28.718Z,0
2017-12-27T16:06:54.266Z,0
2017-12-27T16:07:19.834Z,0
2017-12-27T16:07:45.432Z,0
2017-12-27T16:08:11.013Z,0
2017-12-27T16:08:36.579Z,0
2017-12-27T16:09:02.166Z,0
2017-12-27T16:09:27.745Z,0
2017-12-27T16:09:53.316Z,0
2017-12-27T16:10:18.909Z,0
2017-12-27T16:10:44.487Z,0
2017-12-27T16:11:10.109Z,0
2017-12-27T16:11:35.647Z,0
2017-12-27T16:12:01.223Z,0
2017-12-27T16:12:26.790Z,0
2017-12-27T16:12:52.337Z,0
2017-12-27T16:13:17.929Z,0
2017-12-27T16:13:43.500Z,0
2017-12-27T16:14:09.102Z,0
2017-12-27T16:14:34.669Z,0
2017-12-27T16:15:00.242Z,0
2017-12-27T16:15:25.806Z,0
2017-12-27T16:15:51.351Z,0
2017-12-27T16:16:16.937Z,0
2017-12-27T16:16:42.553Z,0
2017-12-27T16:17:08.206Z,0
2017-12-27T16:17:33.779Z,0
2017-12-27T16:17:59.356Z,0
2017-12-27T16:18:24.933Z,0
2017-12-27T16:18:50.506Z,0
2017-12-27T16:19:16.068Z,0
2017-12-27T16:19:41.628Z,0
2017-12-27T16:20:07.208Z,0
2017-12-27T16:20:32.781Z,0
2017-12-27T16:20:58.383Z,0
2017-12-27T16:21:23.954Z,0
2017-12-27T16:21:49.607Z,0
2017-12-27T16:22:15.236Z,0
2017-12-27T16:23:29.586Z,0
2017-12-27T16:23:55.152Z,0
2017-12-27T16:24:20.935Z,0
2017-12-27T16:24:46.580Z,0
2017-12-27T16:25:12.144Z,0
2017-12-27T16:25:37.725Z,0
2017-12-27T16:26:03.317Z,0
2017-12-27T16:26:28.890Z,0
2017-12-27T16:26:54.476Z,0
2017-12-27T16:27:20.061Z,0
2017-12-27T16:27:45.642Z,0
2017-12-27T16:28:11.192Z,0
2017-12-27T16:28:36.776Z,0
2017-12-27T16:29:02.375Z,0
2017-12-27T16:29:27.940Z,0
2017-12-27T16:29:53.479Z,0
2017-12-27T16:30:19.056Z,0
2017-12-27T16:30:44.644Z,0
2017-12-27T16:31:10.280Z,0
2017-12-27T16:31:35.885Z,0
2017-12-27T16:32:01.452Z,0
2017-12-27T16:32:27.040Z,0
2017-12-27T16:32:52.600Z,0
2017-12-27T16:33:18.147Z,0
2017-12-27T16:33:43.695Z,0
2017-12-27T16:34:09.324Z,0
2017-12-27T16:34:34.886Z,0
2017-12-27T16:35:00.453Z,0
2017-12-27T16:35:26.098Z,0
2017-12-27T16:35:51.686Z,0
2017-12-27T16:36:17.240Z,0
2017-12-27T16:36:42.845Z,0
2017-12-27T16:37:08.394Z,0
2017-12-27T16:37:33.956Z,0
2017-12-27T16:37:59.527Z,0
2017-12-27T16:38:25.071Z,0
2017-12-27T16:38:50.685Z,0
2017-12-27T16:39:16.246Z,0
2017-12-27T16:39:41.841Z,0
2017-12-27T16:40:07.386Z,0
2017-12-27T16:40:33.020Z,0
2017-12-27T16:40:58.582Z,0
2017-12-27T16:41:24.150Z,0
2017-12-27T16:41:49.745Z,0
2017-12-27T16:42:15.365Z,0
2017-12-27T16:42:40.933Z,0
2017-12-27T16:43:06.525Z,0
2017-12-27T16:43:32.113Z,0
2017-12-27T16:43:57.676Z,0
2017-12-27T16:44:23.254Z,0
2017-12-27T16:44:48.795Z,0
2017-12-27T16:45:14.413Z,0
2017-12-27T16:45:39.997Z,0
2017-12-27T16:46:05.793Z,0
2017-12-27T16:46:31.362Z,0
2017-12-27T16:46:56.948Z,0
2017-12-27T16:47:22.546Z,0
2017-12-27T16:47:48.153Z,0
2017-12-27T16:48:13.852Z,0
2017-12-27T16:48:39.406Z,0
2017-12-27T16:49:53.322Z,0
2017-12-27T16:50:18.908Z,0
2017-12-27T16:50:44.465Z,0
2017-12-27T16:51:10.012Z,0
2017-12-27T16:51:35.597Z,0
2017-12-27T16:52:01.152Z,0
2017-12-27T16:52:26.740Z,0
2017-12-27T16:52:52.355Z,0
2017-12-27T16:53:17.939Z,0
2017-12-27T16:53:43.497Z,0
2017-12-27T16:54:09.043Z,0
2017-12-27T16:54:34.605Z,0
2017-12-27T16:55:00.192Z,0
2017-12-27T16:55:25.750Z,0
2017-12-27T16:55:51.318Z,0
2017-12-27T16:56:16.912Z,0
2017-12-27T16:56:42.583Z,0
2017-12-27T16:57:08.183Z,0
2017-12-27T16:57:33.749Z,0
2017-12-27T16:57:59.340Z,0
2017-12-27T16:58:24.906Z,0
2017-12-27T16:58:50.471Z,0
2017-12-27T16:59:16.028Z,0
2017-12-27T16:59:41.699Z,0
2017-12-27T17:00:07.260Z,0
2017-12-27T17:00:32.843Z,0
2017-12-27T17:00:58.417Z,0
2017-12-27T17:01:23.985Z,0
2017-12-27T17:01:49.566Z,0
2017-12-27T17:02:15.204Z,0
2017-12-27T17:02:40.767Z,0
2017-12-27T17:03:06.337Z,0
2017-12-27T17:03:31.883Z,0
2017-12-27T17:03:57.484Z,0
2017-12-27T17:04:23.018Z,0
2017-12-27T17:04:48.592Z,0
2017-12-27T17:05:14.171Z,0
2017-12-27T17:05:39.743Z,0
2017-12-27T17:06:05.302Z,0
2017-12-27T17:06:30.867Z,0
2017-12-27T17:06:56.453Z,0
2017-12-27T17:07:22.143Z,0
2017-12-27T17:07:47.707Z,0
2017-12-27T17:08:13.273Z,0
2017-12-27T17:08:39.005Z,0
2017-12-27T17:09:04.557Z,0
2017-12-27T17:09:30.133Z,0
2017-12-27T17:09:55.764Z,0
2017-12-27T17:10:21.320Z,0
2017-12-27T17:10:46.888Z,0
2017-12-27T17:11:12.522Z,0
2017-12-27T17:11:38.025Z,0
2017-12-27T17:12:03.662Z,0
2017-12-27T17:12:29.264Z,0
2017-12-27T17:12:54.878Z,0
2017-12-27T17:13:20.569Z,0
2017-12-27T17:13:46.120Z,0
2017-12-27T17:14:11.686Z,0
2017-12-27T17:14:37.278Z,0
2017-12-27T17:15:02.859Z,0
2017-12-27T17:15:28.422Z,0
2017-12-27T17:15:54.021Z,0
2017-12-27T17:16:19.572Z,0
2017-12-27T17:16:45.127Z,0
2017-12-27T17:17:10.690Z,0
2017-12-27T17:17:36.259Z,0
2017-12-27T17:18:01.822Z,0
2017-12-27T17:18:27.421Z,0
2017-12-27T17:18:53.016Z,0
2017-12-27T17:19:18.617Z,0
2017-12-27T17:19:44.167Z,0
2017-12-27T17:20:09.773Z,0
2017-12-27T17:20:35.358Z,0
2017-12-27T17:21:00.927Z,0
2017-12-27T17:21:26.531Z,0
2017-12-27T17:21:52.086Z,0
2017-12-27T17:22:17.661Z,0
2017-12-27T17:22:43.229Z,0
2017-12-27T17:23:08.784Z,0
2017-12-27T17:23:34.346Z,0
2017-12-27T17:23:59.950Z,0
2017-12-27T17:24:25.505Z,0
2017-12-27T17:24:51.112Z,0
2017-12-27T17:25:16.659Z,0
2017-12-27T17:25:42.237Z,0
2017-12-27T17:26:07.803Z,0
2017-12-27T17:26:33.414Z,0
2017-12-27T17:26:58.965Z,0
2017-12-27T17:27:24.565Z,0
2017-12-27T17:27:50.197Z,0
2017-12-27T17:28:15.769Z,0
2017-12-27T17:28:41.340Z,0
2017-12-27T17:29:06.912Z,0
2017-12-27T17:29:32.472Z,0
2017-12-27T17:29:58.052Z,0
2017-12-27T17:30:23.656Z,0
2017-12-27T17:30:49.220Z,0
2017-12-27T17:31:14.808Z,0
2017-12-27T17:31:40.375Z,0
2017-12-27T17:32:05.949Z,0
2017-12-27T17:32:31.502Z,0
2017-12-27T17:32:57.088Z,0
2017-12-27T17:33:22.668Z,0
2017-12-27T17:33:48.201Z,0
2017-12-27T17:34:13.857Z,0
2017-12-27T17:34:39.401Z,0
2017-12-27T17:35:04.983Z,0
2017-12-27T17:35:30.540Z,0
2017-12-27T17:35:56.154Z,0
2017-12-27T17:36:21.781Z,0
2017-12-27T17:36:47.353Z,0
2017-12-27T17:37:12.931Z,0
2017-12-27T17:37:38.519Z,0
2017-12-27T17:38:04.100Z,0
2017-12-27T17:38:29.691Z,0
2017-12-27T17:38:55.268Z,0
2017-12-27T17:39:20.841Z,0
2017-12-27T17:39:46.576Z,0
2017-12-27T17:40:12.292Z,0
2017-12-27T17:40:37.879Z,0
2017-12-27T17:41:03.458Z,0
2017-12-27T17:41:29.062Z,0
2017-12-27T17:41:54.646Z,0
2017-12-27T17:42:20.207Z,0
2017-12-27T17:42:45.792Z,0
2017-12-27T17:43:11.340Z,0
2017-12-27T17:43:36.944Z,0
2017-12-27T17:44:02.495Z,0
2017-12-27T17:44:28.114Z,0
2017-12-27T17:44:53.686Z,0
2017-12-27T17:45:19.262Z,0
2017-12-27T17:45:44.857Z,0
2017-12-27T17:46:10.448Z,0
2017-12-27T17:46:36.037Z,0
2017-12-27T17:47:01.661Z,0
2017-12-27T17:47:27.201Z,0
2017-12-27T17:47:52.753Z,0
2017-12-27T17:48:18.312Z,0
2017-12-27T17:48:43.866Z,0
2017-12-27T17:49:09.409Z,0
2017-12-27T17:49:35.038Z,0
2017-12-27T17:50:00.569Z,0
2017-12-27T17:50:26.153Z,0
2017-12-27T17:50:51.745Z,0
2017-12-27T17:51:17.307Z,0
2017-12-27T17:51:42.890Z,0
2017-12-27T17:52:08.505Z,0
2017-12-27T17:52:34.053Z,0
2017-12-27T17:52:59.622Z,0
2017-12-27T17:53:25.205Z,0
2017-12-27T17:53:50.785Z,0
2017-12-27T17:54:16.374Z,0
2017-12-27T17:54:41.952Z,0
2017-12-27T17:55:07.771Z,0
2017-12-27T17:55:33.339Z,0
2017-12-27T17:55:58.892Z,0
2017-12-27T17:56:24.563Z,0
2017-12-27T17:56:50.226Z,0
2017-12-27T17:57:15.817Z,0
2017-12-27T17:57:41.380Z,0
2017-12-27T17:58:06.932Z,0
2017-12-27T17:58:32.550Z,0
2017-12-27T17:58:58.197Z,0
2017-12-27T17:59:23.733Z,0
2017-12-27T17:59:49.310Z,0
2017-12-27T18:00:14.861Z,0
2017-12-27T18:00:40.505Z,0
2017-12-27T18:01:06.041Z,0
2017-12-27T18:01:31.607Z,0
2017-12-27T18:01:57.209Z,0
2017-12-27T18:02:22.814Z,0
2017-12-27T18:02:48.397Z,0
2017-12-27T18:03:13.993Z,0
2017-12-27T18:03:39.548Z,0
2017-12-27T18:04:05.140Z,0
2017-12-27T18:04:30.735Z,0
2017-12-27T18:04:56.300Z,0
2017-12-27T18:05:21.882Z,0
2017-12-27T18:05:47.437Z,0
2017-12-27T18:06:13.023Z,0
2017-12-27T18:06:38.580Z,0
2017-12-27T18:07:04.167Z,0
2017-12-27T18:07:29.736Z,0
2017-12-27T18:07:55.308Z,0
2017-12-27T18:08:20.871Z,0
2017-12-27T18:08:46.474Z,0
2017-12-27T18:09:12.038Z,0
2017-12-27T18:09:37.618Z,0
2017-12-27T18:10:03.187Z,0
2017-12-27T18:10:28.820Z,0
2017-12-27T18:10:54.386Z,0